Time;durP1;ratioP1;P1;durP2;ratioP2;P2;SDS_P1;SDS_P2;PMS_P1;PMS_P2;Temp;Humidity;BMP_temperature;BMP_pressure;BME280_temperature;BME280_humidity;BME280_pressure;Samples;Min_cycle;Max_cycle;Signal;HPM_P1;HPM_P2
2024/01/16 00:09:42;;;;;;;6.90;2.63;;;;;;;13.10;65.32;95350.22;6155854;23;20024;-25
2024/01/16 00:25:59;;;;;;;7.05;3.25;;;;;;;13.46;63.87;95348.34;6155625;23;20020;-24
2024/01/16 00:41:52;;;;;;;5.22;2.60;;;;;;;13.18;64.76;95362.25;6156096;23;20489;-25
2024/01/16 00:55:15;;;;;;;9.75;2.92;;;;;;;13.13;64.03;95381.16;6155519;23;20059;-25
2024/01/16 01:11:07;;;;;;;5.20;2.08;;;;;;;13.25;63.77;95389.09;6154562;23;20475;-25
2024/01/16 01:27:13;;;;;;;2.88;1.63;;;;;;;12.95;64.25;95393.72;6155024;23;20028;-25
2024/01/16 01:29:38;;;;;;;6.85;2.13;;;;;;;13.35;62.88;95399.91;6155848;23;20436;-25
2024/01/16 01:42:09;;;;;;;4.70;1.70;;;;;;;12.95;64.18;95409.31;6155638;23;20048;-25
2024/01/16 02:11:28;;;;;;;5.22;1.75;;;;;;;13.00;63.51;95407.91;6154020;23;20454;-25
2024/01/16 02:13:54;;;;;;;3.58;1.40;;;;;;;13.18;62.94;95411.25;6155012;23;20010;-25
2024/01/16 02:16:22;;;;;;;3.47;1.35;;;;;;;13.27;62.13;95413.88;6155829;23;20348;-24
2024/01/16 02:26:21;;;;;;;7.63;1.85;;;;;;;13.44;61.54;95410.72;6155268;23;20105;-25
2024/01/16 02:42:13;;;;;;;5.50;1.50;;;;;;;12.97;62.36;95415.03;6155054;23;20556;-25
2024/01/16 02:58:06;;;;;;;4.18;1.40;;;;;;;13.11;61.41;95406.13;6156838;23;20064;-25
2024/01/16 03:27:50;;;;;;;8.70;2.40;;;;;;;13.01;62.44;95418.31;6156609;23;20084;-25
2024/01/16 03:43:44;;;;;;;9.98;2.63;;;;;;;13.21;62.86;95428.63;6156428;23;20068;-25
2024/01/16 03:46:13;;;;;;;5.40;2.38;;;;;;;13.24;62.41;95419.50;6156710;23;20001;-25
2024/01/16 03:58:43;;;;;;;5.45;2.88;;;;;;;12.89;63.99;95430.97;6156327;23;20411;-25
2024/01/16 04:01:09;;;;;;;7.18;3.85;;;;;;;12.96;63.92;95438.03;6156213;23;20005;-25
2024/01/16 04:13:40;;;;;;;4.68;2.88;;;;;;;12.98;64.55;95435.59;6155116;23;20032;-25
2024/01/16 04:29:32;;;;;;;3.33;2.65;;;;;;;12.74;65.06;95443.00;6156159;23;20514;-25
2024/01/16 04:42:53;;;;;;;3.97;2.42;;;;;;;12.89;64.62;95443.81;6156071;23;20016;-25
2024/01/16 04:58:45;;;;;;;2.53;1.85;;;;;;;12.75;63.94;95448.00;6155440;23;20039;-25
2024/01/16 05:14:37;;;;;;;9.35;2.50;;;;;;;12.84;63.70;95461.56;6154322;23;20470;-25
2024/01/16 05:30:30;;;;;;;4.03;2.58;;;;;;;12.51;64.77;95485.31;6155496;23;20064;-25
2024/01/16 05:43:31;;;;;;;3.47;2.47;;;;;;;12.47;64.86;95501.06;6155787;23;20063;-25
2024/01/16 05:59:23;;;;;;;3.33;2.30;;;;;;;12.51;64.96;95512.50;6155330;23;20029;-25
2024/01/16 06:01:49;;;;;;;3.20;2.20;;;;;;;12.41;64.94;95514.53;6155186;23;20420;-25
2024/01/16 06:04:15;;;;;;;2.80;2.15;;;;;;;12.45;64.72;95520.56;6155592;23;20009;-25
2024/01/16 06:14:08;;;;;;;3.72;2.17;;;;;;;12.31;65.75;95526.66;6154331;23;20036;-25
2024/01/16 06:29:59;;;;;;;2.63;1.85;;;;;;;12.49;65.39;95542.13;6127255;23;20057;-25
2024/01/16 06:45:53;;;;;;;4.20;3.05;;;;;;;12.47;65.36;95552.72;6127408;23;20012;-25
2024/01/16 06:59:21;;;;;;;4.63;2.28;;;;;;;12.61;65.30;95573.06;6127180;23;20021;-25
2024/01/16 07:15:14;;;;;;;4.70;2.83;;;;;;;12.83;64.89;95592.63;6142525;23;20083;-25
2024/01/16 07:31:06;;;;;;;5.70;3.22;;;;;;;12.58;66.56;95605.41;6156481;23;20068;-25
2024/01/16 07:47:12;;;;;;;5.70;3.05;;;;;;;12.81;66.47;95633.88;6156205;23;20023;-25
2024/01/16 08:00:01;;;;;;;7.20;3.92;;;;;;;13.03;65.94;95662.81;6155944;23;20028;-25
2024/01/16 08:02:33;;;;;;;5.35;2.92;;;;;;;12.76;67.10;95666.41;6156260;23;20059;-25
2024/01/16 08:15:30;;;;;;;10.25;5.10;;;;;;;12.88;67.03;95676.34;6154719;23;20028;-25
2024/01/16 08:31:22;;;;;;;6.85;3.03;;;;;;;13.03;66.85;95682.63;6126416;23;20455;-25
2024/01/16 08:47:15;;;;;;;14.02;3.70;;;;;;;13.14;67.08;95706.63;6126345;23;20106;-25
2024/01/16 09:00:39;;;;;;;10.35;2.97;;;;;;;12.91;67.58;95711.56;6126332;23;20021;-25
2024/01/16 09:16:31;;;;;;;10.43;2.83;;;;;;;13.37;67.33;95729.69;6141067;23;20040;-25
2024/01/16 09:32:24;;;;;;;13.80;3.17;;;;;;;14.82;60.33;95725.19;6155283;23;20020;-25
2024/01/16 09:48:16;;;;;;;12.88;2.63;;;;;;;15.54;57.27;95744.66;6155087;23;20342;-25
2024/01/16 10:01:26;;;;;;;10.90;2.40;;;;;;;14.97;61.44;95733.34;6155116;23;20367;-25
2024/01/16 10:17:19;;;;;;;10.55;3.45;;;;;;;14.19;61.85;95707.38;6154340;23;20033;-25
2024/01/16 10:33:41;;;;;;;6.60;2.20;;;;;;;14.06;62.43;95729.44;6155163;23;20096;-25
2024/01/16 10:46:54;;;;;;;13.93;3.45;;;;;;;13.96;62.67;95708.94;6155197;23;20076;-25
2024/01/16 11:03:09;;;;;;;4.93;2.20;;;;;;;13.86;63.97;95708.22;6154484;23;20368;-25
2024/01/16 11:19:04;;;;;;;10.07;2.92;;;;;;;13.92;63.24;95711.81;6155290;23;20467;-25
2024/01/16 11:32:26;;;;;;;10.55;2.45;;;;;;;13.81;63.38;95694.50;6156443;23;20016;-25
2024/01/16 11:48:19;;;;;;;7.47;2.25;;;;;;;14.05;62.77;95689.03;6156082;23;20028;-25
2024/01/16 12:04:14;;;;;;;13.35;2.60;;;;;;;13.87;64.37;95692.63;6156431;23;20083;-25
2024/01/16 12:06:40;;;;;;;11.57;2.97;;;;;;;13.95;64.36;95688.34;6156132;23;20005;-24
2024/01/16 12:19:11;;;;;;;10.00;3.45;;;;;;;14.02;64.52;95677.81;6154853;23;20076;-25
2024/01/16 12:35:04;;;;;;;12.30;4.45;;;;;;;14.07;65.14;95670.97;6155804;23;20068;-25
2024/01/16 12:48:21;;;;;;;16.52;6.30;;;;;;;13.81;66.77;95664.53;6155726;23;20021;-25
2024/01/16 13:04:16;;;;;;;11.43;4.00;;;;;;;13.86;65.95;95658.41;6155694;23;20025;-25
2024/01/16 13:20:10;;;;;;;13.82;3.80;;;;;;;13.85;66.90;95654.94;6154175;23;20167;-25
2024/01/16 13:36:04;;;;;;;12.85;4.45;;;;;;;14.16;64.80;95653.78;6155501;23;20513;-25
2024/01/16 13:48:57;;;;;;;9.93;3.17;;;;;;;14.03;66.17;95657.53;6154825;23;20017;-25
2024/01/16 14:04:51;;;;;;;6.60;2.45;;;;;;;13.74;66.95;95686.66;6154905;23;20013;-25
2024/01/16 14:07:16;;;;;;;13.10;2.88;;;;;;;13.93;66.55;95696.22;6155615;23;20006;-25
2024/01/16 14:09:42;;;;;;;9.20;3.05;;;;;;;13.93;66.19;95691.53;6155382;23;20313;-25
2024/01/16 14:12:08;;;;;;;12.13;3.17;;;;;;;14.01;66.13;95694.66;6155414;23;20037;-25
2024/01/16 14:21:16;;;;;;;10.07;4.18;;;;;;;13.98;66.08;95703.75;6154543;23;20091;-25
2024/01/16 14:34:30;;;;;;;12.63;4.53;;;;;;;14.14;65.13;95718.94;6155215;23;20096;-25
2024/01/16 14:36:56;;;;;;;10.07;3.88;;;;;;;14.23;64.37;95718.84;6155136;23;20411;-25
2024/01/16 14:49:38;;;;;;;11.23;5.10;;;;;;;14.07;65.54;95722.03;6156448;23;20048;-25
2024/01/16 15:05:31;;;;;;;11.07;4.55;;;;;;;14.30;63.72;95726.69;6155898;23;20044;-25
2024/01/16 15:21:23;;;;;;;26.92;12.00;;;;;;;13.99;66.82;95738.72;6155371;23;20083;-25
2024/01/16 15:37:16;;;;;;;23.38;11.90;;;;;;;13.95;66.70;95757.25;6156099;23;20013;-25
2024/01/16 15:50:21;;;;;;;17.65;7.47;;;;;;;13.99;66.95;95776.13;6156292;23;20013;-25
2024/01/16 16:06:40;;;;;;;13.30;6.45;;;;;;;14.38;64.75;95785.09;6155777;23;20020;-25
2024/01/16 16:22:32;;;;;;;14.07;7.00;;;;;;;14.44;63.15;95783.28;6155162;23;20407;-25
2024/01/16 16:35:53;;;;;;;20.58;9.55;;;;;;;14.48;63.32;95789.28;6156195;23;20024;-25
2024/01/16 16:51:47;;;;;;;15.63;9.38;;;;;;;14.33;63.86;95804.88;6155566;23;20470;-25
2024/01/16 17:07:39;;;;;;;15.32;8.80;;;;;;;14.40;64.37;95815.44;6155138;23;20036;-25
2024/01/16 17:10:08;;;;;;;16.23;8.80;;;;;;;14.27;65.05;95820.34;6156046;23;20022;-25
2024/01/16 17:22:41;;;;;;;14.05;7.22;;;;;;;14.41;62.79;95833.31;6154450;23;20159;-25
2024/01/16 17:38:33;;;;;;;18.95;8.82;;;;;;;14.14;65.59;95852.53;6155514;23;20016;-25
2024/01/16 17:51:45;;;;;;;16.65;8.05;;;;;;;14.03;67.24;95875.63;6155629;23;20335;-25
2024/01/16 18:07:51;;;;;;;17.77;6.13;;;;;;;13.99;67.68;95877.00;6155096;23;20420;-25
2024/01/16 18:23:43;;;;;;;14.07;7.85;;;;;;;14.00;67.80;95903.81;6155778;23;20032;-25
2024/01/16 18:53:03;;;;;;;13.05;6.32;;;;;;;14.16;65.96;95891.03;6156963;23;20041;-25
2024/01/16 19:08:56;;;;;;;15.43;8.23;;;;;;;13.95;66.55;95912.63;6156267;23;20069;-25
2024/01/16 19:39:15;;;;;;;13.40;5.97;;;;;;;13.94;66.80;95915.81;6156483;23;20093;-25
2024/01/16 19:55:07;;;;;;;20.95;9.05;;;;;;;13.93;66.04;95893.25;6156410;23;20047;-25
2024/01/16 20:08:14;;;;;;;18.92;9.00;;;;;;;13.87;65.44;95905.22;6156188;23;20344;-25
2024/01/16 20:24:07;;;;;;;33.72;15.82;;;;;;;13.99;64.86;95920.63;6154390;23;20056;-25
2024/01/16 20:40:04;;;;;;;60.72;27.65;;;;;;;13.89;63.96;95916.44;6155703;23;20012;-25
2024/01/16 20:55:57;;;;;;;19.42;11.25;;;;;;;13.78;63.59;95913.44;6155883;23;20017;-25
2024/01/16 21:08:58;;;;;;;23.25;12.75;;;;;;;13.95;62.76;95933.69;6155713;23;20042;-25
2024/01/16 21:24:51;;;;;;;13.98;6.10;;;;;;;13.84;63.03;95925.25;6154514;23;20029;-25
2024/01/16 21:40:43;;;;;;;10.00;4.45;;;;;;;13.90;63.02;95937.78;6155370;23;20068;-25
2024/01/16 21:43:09;;;;;;;10.55;4.85;;;;;;;13.79;63.79;95942.22;6155619;23;20005;-25
2024/01/16 21:45:35;;;;;;;12.32;4.18;;;;;;;13.70;63.22;95945.72;6155400;23;20088;-25
2024/01/16 21:54:43;;;;;;;7.68;3.35;;;;;;;13.71;63.50;95946.47;6154900;23;20020;-25
2024/01/16 22:10:41;;;;;;;13.18;3.75;;;;;;;13.74;64.30;95946.28;6155262;23;20025;-25
2024/01/16 22:26:33;;;;;;;9.65;3.35;;;;;;;13.90;64.19;95937.03;6153729;23;20522;-25
2024/01/16 22:55:53;;;;;;;8.27;3.45;;;;;;;13.96;64.67;95908.69;6155225;23;20056;-25
2024/01/16 23:11:45;;;;;;;8.15;3.20;;;;;;;13.92;65.36;95920.97;6156372;23;20116;-25
2024/01/16 23:27:38;;;;;;;9.85;2.95;;;;;;;13.79;66.91;95891.19;6155780;23;20097;-24
2024/01/16 23:40:50;;;;;;;10.20;2.47;;;;;;;13.89;67.37;95876.28;6156481;23;20076;-25
2024/01/16 23:56:42;;;;;;;8.45;2.47;;;;;;;13.75;69.73;95882.41;6156064;23;20016;-25
